createdAt,value
2018-05-23T00:01:59.560Z,18.94
2018-05-23T00:04:26.976Z,18.91
2018-05-23T00:06:54.392Z,18.88
2018-05-23T00:09:21.812Z,18.82
2018-05-23T00:11:49.371Z,18.79
2018-05-23T00:14:16.795Z,18.70
2018-05-23T00:16:44.581Z,18.72
2018-05-23T00:19:11.987Z,18.71
2018-05-23T00:21:39.404Z,18.71
2018-05-23T00:24:06.843Z,18.70
2018-05-23T00:26:34.256Z,18.72
2018-05-23T00:29:01.672Z,18.72
2018-05-23T00:31:29.091Z,18.71
2018-05-23T00:33:56.504Z,18.74
2018-05-23T00:36:24.166Z,18.74
2018-05-23T00:38:51.703Z,18.73
2018-05-23T00:41:19.146Z,18.68
2018-05-23T00:43:46.753Z,18.64
2018-05-23T00:46:14.173Z,18.61
2018-05-23T00:48:41.588Z,18.60
2018-05-23T00:51:09.277Z,18.61
2018-05-23T00:53:36.684Z,18.62
2018-05-23T00:56:04.100Z,18.57
2018-05-23T00:58:31.524Z,18.46
2018-05-23T01:00:58.932Z,18.45
2018-05-23T01:03:26.384Z,18.45
2018-05-23T01:05:53.837Z,18.46
2018-05-23T01:08:21.412Z,18.47
2018-05-23T01:10:48.828Z,18.46
2018-05-23T01:13:16.235Z,18.40
2018-05-23T01:15:43.676Z,18.38
2018-05-23T01:18:11.401Z,18.38
2018-05-23T01:20:38.808Z,18.39
2018-05-23T01:23:06.261Z,18.29
2018-05-23T01:25:33.683Z,18.19
2018-05-23T01:28:01.096Z,18.16
2018-05-23T01:30:28.532Z,18.17
2018-05-23T01:32:55.972Z,18.15
2018-05-23T01:35:23.391Z,18.16
2018-05-23T01:37:50.804Z,18.17
2018-05-23T01:40:18.320Z,18.18
2018-05-23T01:42:45.729Z,18.18
2018-05-23T01:45:13.144Z,18.17
2018-05-23T01:47:40.584Z,18.15
2018-05-23T01:50:07.989Z,18.12
2018-05-23T01:52:35.409Z,18.11
2018-05-23T01:55:02.841Z,18.10
2018-05-23T01:57:30.268Z,18.09
2018-05-23T01:59:57.679Z,18.06
2018-05-23T02:02:25.100Z,18.07
2018-05-23T02:04:52.519Z,18.04
2018-05-23T02:07:19.936Z,17.99
2018-05-23T02:09:47.359Z,17.93
2018-05-23T02:12:14.780Z,17.96
2018-05-23T02:14:42.200Z,17.95
2018-05-23T02:17:09.631Z,17.95
2018-05-23T02:19:37.064Z,17.96
2018-05-23T02:22:04.484Z,17.91
2018-05-23T02:24:31.912Z,17.78
2018-05-23T02:26:59.339Z,17.76
2018-05-23T02:29:26.752Z,17.78
2018-05-23T02:31:54.164Z,17.77
2018-05-23T02:34:21.592Z,17.80
2018-05-23T02:36:49.009Z,17.80
2018-05-23T02:39:16.424Z,17.80
2018-05-23T02:41:43.856Z,17.81
2018-05-23T02:44:11.272Z,17.82
2018-05-23T02:46:38.709Z,17.83
2018-05-23T02:49:06.136Z,17.85
2018-05-23T02:51:33.557Z,17.85
2018-05-23T02:54:00.976Z,17.85
2018-05-23T02:56:28.484Z,17.86
2018-05-23T02:58:55.892Z,17.86
2018-05-23T03:01:23.396Z,17.87
2018-05-23T03:03:50.814Z,17.83
2018-05-23T03:06:18.233Z,17.74
2018-05-23T03:08:45.661Z,17.70
2018-05-23T03:11:13.074Z,17.69
2018-05-23T03:13:40.493Z,17.72
2018-05-23T03:16:07.919Z,17.71
2018-05-23T03:18:35.339Z,17.67
2018-05-23T03:21:02.752Z,17.65
2018-05-23T03:23:30.188Z,17.62
2018-05-23T03:25:57.609Z,17.57
2018-05-23T03:28:25.017Z,17.57
2018-05-23T03:30:52.769Z,17.55
2018-05-23T03:33:20.184Z,17.53
2018-05-23T03:35:47.592Z,17.52
2018-05-23T03:38:15.013Z,17.52
2018-05-23T03:40:42.427Z,17.49
2018-05-23T03:43:09.861Z,17.49
2018-05-23T03:45:37.284Z,17.49
2018-05-23T03:48:04.696Z,17.48
2018-05-23T03:50:32.524Z,17.48
2018-05-23T03:52:59.933Z,17.50
2018-05-23T03:55:27.348Z,17.54
2018-05-23T03:57:54.779Z,17.56
2018-05-23T04:00:34.049Z,17.56
2018-05-23T04:03:13.626Z,17.56
2018-05-23T04:05:53.167Z,17.56
2018-05-23T04:08:20.589Z,17.57
2018-05-23T04:10:48.018Z,17.50
2018-05-23T04:13:15.435Z,17.43
2018-05-23T04:15:42.851Z,17.46
2018-05-23T04:18:10.543Z,17.50
2018-05-23T04:20:37.943Z,17.52
2018-05-23T04:23:05.361Z,17.51
2018-05-23T04:25:32.846Z,17.49
2018-05-23T04:28:00.303Z,17.53
2018-05-23T04:30:27.710Z,17.53
2018-05-23T04:32:55.134Z,17.59
2018-05-23T04:35:22.548Z,17.65
2018-05-23T04:37:49.968Z,17.70
2018-05-23T04:40:17.401Z,17.65
2018-05-23T04:42:44.841Z,17.72
2018-05-23T04:45:12.266Z,17.80
2018-05-23T04:47:39.713Z,17.87
2018-05-23T04:50:07.130Z,17.94
2018-05-23T04:52:34.544Z,18.01
2018-05-23T04:55:01.968Z,18.09
2018-05-23T04:57:29.396Z,18.20
2018-05-23T04:59:56.812Z,18.31
2018-05-23T05:02:24.256Z,18.36
2018-05-23T05:04:51.672Z,18.40
2018-05-23T05:07:19.093Z,18.50
2018-05-23T05:09:46.572Z,18.58
2018-05-23T05:12:13.985Z,18.69
2018-05-23T05:14:41.396Z,18.77
2018-05-23T05:17:09.098Z,18.82
2018-05-23T05:19:36.524Z,18.93
2018-05-23T05:22:03.937Z,19.03
2018-05-23T05:24:31.659Z,19.11
2018-05-23T05:26:59.064Z,19.21
2018-05-23T05:29:26.484Z,19.25
2018-05-23T05:31:53.967Z,19.32
2018-05-23T05:34:21.356Z,19.37
2018-05-23T05:36:48.752Z,19.40
2018-05-23T05:39:16.183Z,19.41
2018-05-23T05:41:43.604Z,19.43
2018-05-23T05:44:11.036Z,19.51
2018-05-23T05:46:38.629Z,19.63
2018-05-23T05:49:06.056Z,19.67
2018-05-23T05:51:33.486Z,19.71
2018-05-23T05:54:00.933Z,19.76
2018-05-23T05:56:28.386Z,19.93
2018-05-23T05:58:55.787Z,19.95
2018-05-23T06:01:23.193Z,19.84
2018-05-23T06:03:50.641Z,19.93
2018-05-23T06:06:18.292Z,20.28
2018-05-23T06:08:45.706Z,20.58
2018-05-23T06:11:13.124Z,20.93
2018-05-23T06:13:40.564Z,21.28
2018-05-23T06:16:07.968Z,21.49
2018-05-23T06:18:35.403Z,21.40
2018-05-23T06:21:02.830Z,21.47
2018-05-23T06:23:30.240Z,21.55
2018-05-23T06:25:57.965Z,21.66
2018-05-23T06:28:25.383Z,21.77
2018-05-23T06:30:52.789Z,21.71
2018-05-23T06:33:20.563Z,21.79
2018-05-23T06:35:47.982Z,21.84
2018-05-23T06:38:15.396Z,21.89
2018-05-23T06:40:42.955Z,21.86
2018-05-23T06:43:10.379Z,21.93
2018-05-23T06:45:37.776Z,21.99
2018-05-23T06:48:05.209Z,22.02
2018-05-23T06:50:32.624Z,22.07
2018-05-23T06:53:00.025Z,22.15
2018-05-23T06:55:27.475Z,22.20
2018-05-23T06:57:54.883Z,22.30
2018-05-23T07:00:22.286Z,22.34
2018-05-23T07:02:49.882Z,22.29
2018-05-23T07:05:17.290Z,22.37
2018-05-23T07:07:44.702Z,22.42
2018-05-23T07:10:12.263Z,22.43
2018-05-23T07:12:39.669Z,22.40
2018-05-23T07:15:07.079Z,22.41
2018-05-23T07:17:34.508Z,22.50
2018-05-23T07:20:01.953Z,22.66
2018-05-23T07:22:29.388Z,22.81
2018-05-23T07:24:56.788Z,22.99
2018-05-23T07:27:24.188Z,23.46
2018-05-23T07:29:51.640Z,24.05
2018-05-23T07:32:19.211Z,24.65
2018-05-23T07:34:46.643Z,24.73
2018-05-23T07:37:14.061Z,24.92
2018-05-23T07:39:41.493Z,25.51
2018-05-23T07:42:08.900Z,26.04
2018-05-23T07:44:36.321Z,26.08
2018-05-23T07:47:03.731Z,26.26
2018-05-23T07:49:31.174Z,26.65
2018-05-23T07:51:58.576Z,26.53
2018-05-23T07:54:26.244Z,26.69
2018-05-23T07:56:53.672Z,26.99
2018-05-23T07:59:21.089Z,27.06
2018-05-23T08:01:48.519Z,26.83
2018-05-23T08:04:15.935Z,26.62
2018-05-23T08:06:43.507Z,26.41
2018-05-23T08:09:10.909Z,26.25
2018-05-23T08:11:38.325Z,26.07
2018-05-23T08:14:05.754Z,26.11
2018-05-23T08:16:33.164Z,26.05
2018-05-23T08:19:00.591Z,26.06
2018-05-23T08:21:28.024Z,26.03
2018-05-23T08:23:55.692Z,25.87
2018-05-23T08:26:23.217Z,25.66
2018-05-23T08:28:50.569Z,25.56
2018-05-23T08:31:17.992Z,25.24
2018-05-23T08:33:45.406Z,25.34
2018-05-23T08:36:12.979Z,25.44
2018-05-23T08:38:40.473Z,25.35
2018-05-23T08:41:07.840Z,25.40
2018-05-23T08:43:35.280Z,25.51
2018-05-23T08:46:02.726Z,25.43
2018-05-23T08:48:30.452Z,25.54
2018-05-23T08:50:57.855Z,25.51
2018-05-23T08:53:25.261Z,25.55
2018-05-23T08:55:52.684Z,25.56
2018-05-23T08:58:20.089Z,25.67
2018-05-23T09:00:47.500Z,25.39
2018-05-23T09:03:14.924Z,25.33
2018-05-23T09:05:42.325Z,25.30
2018-05-23T09:08:09.736Z,25.20
2018-05-23T09:10:37.177Z,25.20
2018-05-23T09:13:04.592Z,25.02
2018-05-23T09:15:32.025Z,25.03
2018-05-23T09:17:59.436Z,25.11
2018-05-23T09:20:26.857Z,25.17
2018-05-23T09:22:54.436Z,25.33
2018-05-23T09:25:21.943Z,25.44
2018-05-23T09:27:49.275Z,25.56
2018-05-23T09:30:16.967Z,25.64
2018-05-23T09:32:44.444Z,25.48
2018-05-23T09:35:11.865Z,25.61
2018-05-23T09:37:39.301Z,25.63
2018-05-23T09:40:06.732Z,25.45
2018-05-23T09:42:34.139Z,25.44
2018-05-23T09:45:01.564Z,25.27
2018-05-23T09:47:28.989Z,25.20
2018-05-23T09:49:56.517Z,25.09
2018-05-23T09:52:24.175Z,25.15
2018-05-23T09:54:51.596Z,25.12
2018-05-23T09:57:19.002Z,25.08
2018-05-23T09:59:46.491Z,25.08
2018-05-23T10:02:13.891Z,25.04
2018-05-23T10:04:41.295Z,24.96
2018-05-23T10:07:08.741Z,24.94
2018-05-23T10:09:36.223Z,24.96
2018-05-23T10:12:03.617Z,25.08
2018-05-23T10:14:31.196Z,25.01
2018-05-23T10:16:58.609Z,24.88
2018-05-23T10:19:26.083Z,24.89
2018-05-23T10:21:53.522Z,24.95
2018-05-23T10:24:21.012Z,24.98
2018-05-23T10:26:48.899Z,24.98
2018-05-23T10:29:16.460Z,25.09
2018-05-23T10:31:43.899Z,24.97
2018-05-23T10:34:11.319Z,25.01
2018-05-23T10:36:38.776Z,25.02
2018-05-23T10:39:06.204Z,25.11
2018-05-23T10:41:33.576Z,25.08
2018-05-23T10:44:01.371Z,25.15
2018-05-23T10:46:28.776Z,25.18
2018-05-23T10:48:56.195Z,25.22
2018-05-23T10:51:23.656Z,25.31
2018-05-23T10:53:51.091Z,25.36
2018-05-23T10:56:18.467Z,25.28
2018-05-23T10:58:45.889Z,25.35
2018-05-23T11:01:13.299Z,25.44
2018-05-23T11:03:40.877Z,25.48
2018-05-23T11:06:08.288Z,25.44
2018-05-23T11:08:35.704Z,25.47
2018-05-23T11:11:03.120Z,25.33
2018-05-23T11:13:30.542Z,25.39
2018-05-23T11:15:58.023Z,25.55
2018-05-23T11:18:25.447Z,25.49
2018-05-23T11:20:52.859Z,25.58
2018-05-23T11:23:20.290Z,25.61
2018-05-23T11:25:47.691Z,25.72
2018-05-23T11:28:15.108Z,25.79
2018-05-23T11:30:42.529Z,25.86
2018-05-23T11:33:09.955Z,25.69
2018-05-23T11:35:37.357Z,25.85
2018-05-23T11:38:04.785Z,26.01
2018-05-23T11:40:32.205Z,26.12
2018-05-23T11:42:59.631Z,26.01
2018-05-23T11:45:27.053Z,26.05
2018-05-23T11:47:54.511Z,25.93
2018-05-23T11:50:22.272Z,25.89
2018-05-23T11:52:49.687Z,26.06
2018-05-23T11:55:17.107Z,26.24
2018-05-23T11:57:44.553Z,26.18
2018-05-23T12:00:11.964Z,26.27
2018-05-23T12:02:39.401Z,26.46
2018-05-23T12:05:06.842Z,26.51
2018-05-23T12:07:34.256Z,26.58
2018-05-23T12:10:01.707Z,26.60
2018-05-23T12:12:29.111Z,26.79
2018-05-23T12:14:56.539Z,26.96
2018-05-23T12:17:23.419Z,26.94
2018-05-23T12:19:50.820Z,27.04
2018-05-23T12:22:18.247Z,27.07
2018-05-23T12:24:45.664Z,26.99
2018-05-23T12:27:13.081Z,27.03
2018-05-23T12:29:40.512Z,27.04
2018-05-23T12:32:07.937Z,26.86
2018-05-23T12:34:35.360Z,26.80
2018-05-23T12:37:02.913Z,26.67
2018-05-23T12:39:30.348Z,26.78
2018-05-23T12:41:57.759Z,26.78
2018-05-23T12:44:25.224Z,26.76
2018-05-23T12:46:52.616Z,26.65
2018-05-23T12:49:20.032Z,26.51
2018-05-23T12:51:47.473Z,26.53
2018-05-23T12:54:14.884Z,26.58
2018-05-23T12:56:42.371Z,26.69
2018-05-23T12:59:09.769Z,26.63
2018-05-23T13:01:37.175Z,26.32
2018-05-23T13:04:04.620Z,26.42
2018-05-23T13:06:32.026Z,26.45
2018-05-23T13:08:59.438Z,26.39
2018-05-23T13:11:26.843Z,26.30
2018-05-23T13:13:54.279Z,26.45
2018-05-23T13:16:21.687Z,26.47
2018-05-23T13:18:49.104Z,26.43
2018-05-23T13:21:16.511Z,26.54
2018-05-23T13:23:43.952Z,26.58
2018-05-23T13:26:11.383Z,26.53
2018-05-23T13:28:38.796Z,26.51
2018-05-23T13:31:06.212Z,26.33
2018-05-23T13:33:33.632Z,26.36
2018-05-23T13:36:01.064Z,26.44
2018-05-23T13:38:28.480Z,26.29
2018-05-23T13:40:55.905Z,26.32
2018-05-23T13:43:23.320Z,26.32
2018-05-23T13:45:50.741Z,26.39
2018-05-23T13:48:18.171Z,26.54
2018-05-23T13:50:45.585Z,26.51
2018-05-23T13:53:12.995Z,26.48
2018-05-23T13:55:40.417Z,26.38
2018-05-23T13:58:07.835Z,26.42
2018-05-23T14:00:35.245Z,26.40
2018-05-23T14:03:02.672Z,26.30
2018-05-23T14:05:30.083Z,26.27
2018-05-23T14:07:57.504Z,26.36
2018-05-23T14:10:24.924Z,26.20
2018-05-23T14:12:52.395Z,26.29
2018-05-23T14:15:19.808Z,26.34
2018-05-23T14:17:47.286Z,26.31
2018-05-23T14:20:14.708Z,26.29
2018-05-23T14:22:42.158Z,26.30
2018-05-23T14:25:09.559Z,26.18
2018-05-23T14:27:36.971Z,26.29
2018-05-23T14:30:04.423Z,26.28
2018-05-23T14:32:31.847Z,26.35
2018-05-23T14:34:59.269Z,26.30
2018-05-23T14:37:26.674Z,26.38
2018-05-23T14:39:54.106Z,26.31
2018-05-23T14:42:21.512Z,26.38
2018-05-23T14:44:48.981Z,26.22
2018-05-23T14:47:16.427Z,26.23
2018-05-23T14:49:43.844Z,26.11
2018-05-23T14:52:12.063Z,25.93
2018-05-23T14:54:39.476Z,26.03
2018-05-23T14:57:06.880Z,26.06
2018-05-23T14:59:34.303Z,25.98
2018-05-23T15:02:01.711Z,25.91
2018-05-23T15:04:29.135Z,25.85
2018-05-23T15:06:56.561Z,25.85
2018-05-23T15:09:23.990Z,25.85
2018-05-23T15:11:51.384Z,25.75
2018-05-23T15:14:19.243Z,25.73
2018-05-23T15:16:47.368Z,25.86
2018-05-23T15:19:14.776Z,25.87
2018-05-23T15:21:42.199Z,25.85
2018-05-23T15:24:09.602Z,25.92
2018-05-23T15:26:37.228Z,25.92
2018-05-23T15:29:05.097Z,26.01
2018-05-23T15:31:32.874Z,25.93
2018-05-23T15:34:00.176Z,25.93
2018-05-23T15:36:27.594Z,25.95
2018-05-23T15:38:55.002Z,26.01
2018-05-23T15:41:22.724Z,26.04
2018-05-23T15:43:50.281Z,26.05
2018-05-23T15:46:17.691Z,26.10
2018-05-23T15:48:45.108Z,26.12
2018-05-23T15:51:12.565Z,26.04
2018-05-23T15:53:39.924Z,26.03
2018-05-23T15:56:07.358Z,26.11
2018-05-23T15:58:34.762Z,26.11
2018-05-23T16:01:02.179Z,26.17
2018-05-23T16:03:29.594Z,26.19
2018-05-23T16:05:57.028Z,26.15
2018-05-23T16:08:24.456Z,26.20
2018-05-23T16:10:51.875Z,26.11
2018-05-23T16:13:19.321Z,26.11
2018-05-23T16:15:46.736Z,26.06
2018-05-23T16:18:14.174Z,26.00
2018-05-23T16:20:41.613Z,25.98
2018-05-23T16:23:09.004Z,25.88
2018-05-23T16:25:36.571Z,25.77
2018-05-23T16:28:03.983Z,25.84
2018-05-23T16:30:31.430Z,25.81
2018-05-23T16:32:58.862Z,25.85
2018-05-23T16:35:26.269Z,25.82
2018-05-23T16:37:53.694Z,25.83
2018-05-23T16:40:21.105Z,25.77
2018-05-23T16:42:48.564Z,25.79
2018-05-23T16:45:15.988Z,25.79
2018-05-23T16:47:43.401Z,25.73
2018-05-23T16:50:10.828Z,25.72
2018-05-23T16:52:38.261Z,25.77
2018-05-23T16:55:05.691Z,25.78
2018-05-23T16:57:33.100Z,25.77
2018-05-23T17:00:00.544Z,25.74
2018-05-23T17:02:27.960Z,25.67
2018-05-23T17:04:55.368Z,25.59
2018-05-23T17:07:22.780Z,25.57
2018-05-23T17:09:50.191Z,25.51
2018-05-23T17:12:17.609Z,25.49
2018-05-23T17:14:45.020Z,25.39
2018-05-23T17:17:12.439Z,25.40
2018-05-23T17:19:39.870Z,25.42
2018-05-23T17:22:07.320Z,25.40
2018-05-23T17:24:34.737Z,25.40
2018-05-23T17:27:02.145Z,25.39
2018-05-23T17:29:29.563Z,25.21
2018-05-23T17:31:56.997Z,25.27
2018-05-23T17:34:24.411Z,25.28
2018-05-23T17:36:51.832Z,25.22
2018-05-23T17:39:19.255Z,25.16
2018-05-23T17:41:46.680Z,25.16
2018-05-23T17:44:14.207Z,25.08
2018-05-23T17:46:41.631Z,25.10
2018-05-23T17:49:09.040Z,25.09
2018-05-23T17:51:36.597Z,25.07
2018-05-23T17:54:04.028Z,25.02
2018-05-23T17:56:31.437Z,24.95
2018-05-23T17:58:58.873Z,24.92
2018-05-23T18:01:26.297Z,24.89
2018-05-23T18:03:53.698Z,24.76
2018-05-23T18:06:21.199Z,24.78
2018-05-23T18:08:48.607Z,24.69
2018-05-23T18:11:16.071Z,24.74
2018-05-23T18:13:43.433Z,24.61
2018-05-23T18:16:10.851Z,24.58
2018-05-23T18:18:38.291Z,24.58
2018-05-23T18:21:05.716Z,24.53
2018-05-23T18:23:33.173Z,24.48
2018-05-23T18:26:00.585Z,24.41
2018-05-23T18:28:28.024Z,24.35
2018-05-23T18:30:55.438Z,24.30
2018-05-23T18:33:22.864Z,24.26
2018-05-23T18:35:50.281Z,24.22
2018-05-23T18:38:17.787Z,24.14
2018-05-23T18:40:45.200Z,24.03
2018-05-23T18:43:12.657Z,24.00
2018-05-23T18:45:40.064Z,23.92
2018-05-23T18:48:07.477Z,23.87
2018-05-23T18:50:34.915Z,23.79
2018-05-23T18:53:02.330Z,23.69
2018-05-23T18:55:29.812Z,23.63
2018-05-23T18:57:57.228Z,23.61
2018-05-23T19:00:24.628Z,23.53
2018-05-23T19:02:52.049Z,23.50
2018-05-23T19:05:19.676Z,23.43
2018-05-23T19:07:47.040Z,23.35
2018-05-23T19:10:14.465Z,23.30
2018-05-23T19:12:41.888Z,23.22
2018-05-23T19:15:09.316Z,23.12
2018-05-23T19:17:36.755Z,23.04
2018-05-23T19:20:04.199Z,22.98
2018-05-23T19:22:31.616Z,22.91
2018-05-23T19:24:59.037Z,22.85
2018-05-23T19:27:26.632Z,22.76
2018-05-23T19:29:54.049Z,22.70
2018-05-23T19:32:21.481Z,22.64
2018-05-23T19:34:48.928Z,22.57
2018-05-23T19:37:16.352Z,22.51
2018-05-23T19:39:43.845Z,22.43
2018-05-23T19:42:11.190Z,22.35
2018-05-23T19:44:38.623Z,22.29
2018-05-23T19:47:06.028Z,22.25
2018-05-23T19:49:33.755Z,22.18
2018-05-23T19:52:01.161Z,22.10
2018-05-23T19:54:28.569Z,22.02
2018-05-23T19:56:56.219Z,21.98
2018-05-23T19:59:23.638Z,21.92
2018-05-23T20:01:51.059Z,21.88
2018-05-23T20:04:18.877Z,21.83
2018-05-23T20:06:46.286Z,21.81
2018-05-23T20:09:13.740Z,21.74
2018-05-23T20:11:41.167Z,21.67
2018-05-23T20:14:08.662Z,21.66
2018-05-23T20:16:36.022Z,21.59
2018-05-23T20:19:03.432Z,21.54
2018-05-23T20:21:30.983Z,21.51
2018-05-23T20:23:58.404Z,21.43
2018-05-23T20:26:25.835Z,21.38
2018-05-23T20:28:53.492Z,21.29
2018-05-23T20:31:20.913Z,21.26
2018-05-23T20:33:48.368Z,21.20
2018-05-23T20:36:15.785Z,21.17
2018-05-23T20:38:43.193Z,21.09
2018-05-23T20:41:10.624Z,21.04
2018-05-23T20:43:38.032Z,21.01
2018-05-23T20:46:05.445Z,20.97
2018-05-23T20:48:32.876Z,20.94
2018-05-23T20:51:00.292Z,20.91
2018-05-23T20:53:27.714Z,20.88
2018-05-23T20:55:55.129Z,20.84
2018-05-23T20:58:22.635Z,20.81
2018-05-23T21:00:49.972Z,20.76
2018-05-23T21:03:17.486Z,20.75
2018-05-23T21:05:44.989Z,20.71
2018-05-23T21:08:12.361Z,20.69
2018-05-23T21:10:39.765Z,20.64
2018-05-23T21:13:07.189Z,20.62
2018-05-23T21:15:34.632Z,20.60
2018-05-23T21:18:02.028Z,20.57
2018-05-23T21:20:29.449Z,20.50
2018-05-23T21:22:56.906Z,20.50
2018-05-23T21:25:24.330Z,20.46
2018-05-23T21:27:51.839Z,20.46
2018-05-23T21:30:19.223Z,20.42
2018-05-23T21:32:46.649Z,20.38
2018-05-23T21:35:14.052Z,20.35
2018-05-23T21:37:41.812Z,20.31
2018-05-23T21:40:09.215Z,20.28
2018-05-23T21:42:36.629Z,20.28
2018-05-23T21:45:04.054Z,20.25
2018-05-23T21:47:31.465Z,20.20
2018-05-23T21:49:58.908Z,20.20
2018-05-23T21:52:26.346Z,20.15
2018-05-23T21:54:53.847Z,20.13
2018-05-23T21:57:21.258Z,20.11
2018-05-23T21:59:48.714Z,20.06
2018-05-23T22:02:16.120Z,20.02
2018-05-23T22:04:43.561Z,19.99
2018-05-23T22:07:10.965Z,19.95
2018-05-23T22:09:38.393Z,19.92
2018-05-23T22:12:05.842Z,19.90
2018-05-23T22:14:33.246Z,19.86
2018-05-23T22:17:00.919Z,19.82
2018-05-23T22:19:28.328Z,19.78
2018-05-23T22:21:55.756Z,19.73
2018-05-23T22:24:23.270Z,19.65
2018-05-23T22:26:50.633Z,19.62
2018-05-23T22:29:18.064Z,19.57
2018-05-23T22:31:45.503Z,19.55
2018-05-23T22:34:12.903Z,19.51
2018-05-23T22:36:40.484Z,19.49
2018-05-23T22:39:07.891Z,19.46
2018-05-23T22:41:35.325Z,19.42
2018-05-23T22:44:02.825Z,19.38
2018-05-23T22:46:30.238Z,19.35
2018-05-23T22:48:57.658Z,19.32
2018-05-23T22:51:25.372Z,19.28
2018-05-23T22:53:52.784Z,19.26
2018-05-23T22:56:20.190Z,19.21
2018-05-23T22:58:47.611Z,19.16
2018-05-23T23:01:15.027Z,19.12
2018-05-23T23:03:42.442Z,19.08
2018-05-23T23:06:09.843Z,19.05
2018-05-23T23:08:37.334Z,19.01
2018-05-23T23:11:04.757Z,18.97
2018-05-23T23:13:32.161Z,18.94
2018-05-23T23:15:59.572Z,18.92
2018-05-23T23:18:27.167Z,18.89
2018-05-23T23:20:54.569Z,18.87
2018-05-23T23:23:21.983Z,18.85
2018-05-23T23:25:49.765Z,18.83
2018-05-23T23:28:17.181Z,18.81
2018-05-23T23:30:44.590Z,18.80
2018-05-23T23:33:12.018Z,18.77
2018-05-23T23:35:39.504Z,18.75
2018-05-23T23:38:06.931Z,18.72
2018-05-23T23:40:34.339Z,18.69
2018-05-23T23:43:01.749Z,18.65
2018-05-23T23:45:29.528Z,18.60
2018-05-23T23:47:56.948Z,18.54
2018-05-23T23:50:24.365Z,18.47
2018-05-23T23:52:52.158Z,18.40
2018-05-23T23:55:19.564Z,18.35
2018-05-23T23:57:46.993Z,18.31
